createdAt,value
2017-07-20T00:00:43.589Z,19.50
2017-07-20T00:03:09.644Z,19.50
2017-07-20T00:05:35.697Z,19.40
2017-07-20T00:08:01.725Z,19.30
2017-07-20T00:10:27.766Z,19.30
2017-07-20T00:12:54.556Z,19.20
2017-07-20T00:15:20.589Z,19.20
2017-07-20T00:17:46.610Z,19.10
2017-07-20T00:20:13.402Z,19.10
2017-07-20T00:22:39.425Z,19.10
2017-07-20T00:25:05.460Z,19.20
2017-07-20T00:27:32.240Z,19.20
2017-07-20T00:29:58.296Z,19.20
2017-07-20T00:32:24.332Z,19.20
2017-07-20T00:34:50.367Z,19.20
2017-07-20T00:37:16.390Z,19.10
2017-07-20T00:39:42.431Z,19.10
2017-07-20T00:42:08.480Z,19.10
2017-07-20T00:44:34.533Z,19.10
2017-07-20T00:47:01.325Z,18.90
2017-07-20T00:49:27.359Z,18.90
2017-07-20T00:51:54.247Z,18.90
2017-07-20T00:54:20.252Z,18.90
2017-07-20T00:56:46.304Z,18.90
2017-07-20T00:59:19.961Z,18.90
2017-07-20T01:01:45.995Z,18.90
2017-07-20T01:04:12.049Z,18.90
2017-07-20T01:06:38.092Z,18.80
2017-07-20T01:09:04.121Z,18.70
2017-07-20T01:11:30.145Z,18.70
2017-07-20T01:13:56.913Z,18.60
2017-07-20T01:16:22.969Z,18.60
2017-07-20T01:18:49.020Z,18.60
2017-07-20T01:21:15.083Z,18.60
2017-07-20T01:23:41.097Z,18.60
2017-07-20T01:26:07.126Z,18.50
2017-07-20T01:28:34.031Z,18.50
2017-07-20T01:31:00.104Z,18.40
2017-07-20T01:33:26.160Z,18.50
2017-07-20T01:35:52.924Z,18.50
2017-07-20T01:38:18.975Z,18.50
2017-07-20T01:40:45.015Z,18.50
2017-07-20T01:43:11.057Z,18.60
2017-07-20T01:45:37.085Z,18.60
2017-07-20T01:48:03.120Z,18.70
2017-07-20T01:50:29.908Z,18.70
2017-07-20T01:52:55.936Z,18.70
2017-07-20T01:55:21.953Z,18.70
2017-07-20T01:57:47.986Z,18.80
2017-07-20T02:00:14.748Z,18.80
2017-07-20T02:02:40.781Z,18.80
2017-07-20T02:05:06.817Z,18.80
2017-07-20T02:07:33.616Z,18.80
2017-07-20T02:09:59.661Z,18.80
2017-07-20T02:12:26.452Z,18.80
2017-07-20T02:14:52.472Z,18.80
2017-07-20T02:17:18.510Z,18.80
2017-07-20T02:19:44.541Z,18.70
2017-07-20T02:22:10.585Z,18.70
2017-07-20T02:24:37.336Z,18.90
2017-07-20T02:27:03.384Z,18.90
2017-07-20T02:29:29.405Z,18.90
2017-07-20T02:31:55.458Z,18.90
2017-07-20T02:34:21.500Z,18.80
2017-07-20T02:36:47.530Z,18.90
2017-07-20T02:39:13.561Z,18.80
2017-07-20T02:41:39.581Z,18.70
2017-07-20T02:44:05.611Z,18.70
2017-07-20T02:46:32.360Z,18.70
2017-07-20T02:48:58.398Z,18.70
2017-07-20T02:51:24.440Z,18.70
2017-07-20T02:53:50.480Z,18.70
2017-07-20T02:56:16.505Z,18.80
2017-07-20T02:58:42.524Z,18.80
2017-07-20T03:01:08.575Z,18.70
2017-07-20T03:03:34.611Z,18.70
2017-07-20T03:06:01.378Z,18.70
2017-07-20T03:08:27.442Z,18.70
2017-07-20T03:10:53.481Z,18.70
2017-07-20T03:13:19.528Z,18.70
2017-07-20T03:15:45.560Z,18.60
2017-07-20T03:18:11.601Z,18.60
2017-07-20T03:20:37.625Z,18.60
2017-07-20T03:23:03.653Z,18.60
2017-07-20T03:25:29.692Z,18.60
2017-07-20T03:27:56.452Z,18.60
2017-07-20T03:30:22.473Z,18.60
2017-07-20T03:32:48.500Z,18.60
2017-07-20T03:35:14.537Z,18.50
2017-07-20T03:37:40.679Z,18.60
2017-07-20T03:40:06.713Z,18.50
2017-07-20T03:42:32.734Z,18.50
2017-07-20T03:44:58.765Z,18.50
2017-07-20T03:47:24.782Z,18.40
2017-07-20T03:49:51.548Z,18.50
2017-07-20T03:52:17.573Z,18.50
2017-07-20T03:54:43.600Z,18.50
2017-07-20T03:57:09.644Z,18.40
2017-07-20T03:59:36.440Z,18.50
2017-07-20T04:02:02.481Z,18.40
2017-07-20T04:04:29.248Z,18.40
2017-07-20T04:06:55.297Z,18.40
2017-07-20T04:09:21.344Z,18.40
2017-07-20T04:11:47.365Z,18.40
2017-07-20T04:14:13.416Z,18.50
2017-07-20T04:16:39.452Z,18.50
2017-07-20T04:19:05.493Z,18.60
2017-07-20T04:21:31.524Z,18.70
2017-07-20T04:23:57.573Z,18.70
2017-07-20T04:26:24.341Z,18.70
2017-07-20T04:28:50.478Z,18.70
2017-07-20T04:31:16.748Z,18.70
2017-07-20T04:33:42.781Z,18.80
2017-07-20T04:36:09.316Z,18.70
2017-07-20T04:38:36.365Z,18.70
2017-07-20T04:41:02.423Z,18.70
2017-07-20T04:43:28.465Z,18.80
2017-07-20T04:45:54.532Z,18.80
2017-07-20T04:48:20.552Z,18.80
2017-07-20T04:50:46.753Z,18.80
2017-07-20T04:53:12.777Z,18.90
2017-07-20T04:55:38.976Z,18.90
2017-07-20T04:58:05.917Z,18.90
2017-07-20T05:00:46.976Z,18.90
2017-07-20T05:03:12.985Z,19.00
2017-07-20T05:05:39.012Z,19.00
2017-07-20T05:08:05.033Z,19.00
2017-07-20T05:10:31.069Z,19.00
2017-07-20T05:12:57.100Z,19.10
2017-07-20T05:15:23.160Z,19.00
2017-07-20T05:17:49.177Z,19.10
2017-07-20T05:20:15.228Z,19.10
2017-07-20T05:22:41.260Z,19.10
2017-07-20T05:25:14.157Z,19.10
2017-07-20T05:27:40.216Z,19.10
2017-07-20T05:30:06.237Z,19.20
2017-07-20T05:32:32.290Z,19.30
2017-07-20T05:34:59.098Z,19.30
2017-07-20T05:37:25.132Z,19.30
2017-07-20T05:39:51.185Z,19.30
2017-07-20T05:42:17.301Z,19.30
2017-07-20T05:44:43.356Z,19.30
2017-07-20T05:47:09.391Z,19.40
2017-07-20T05:49:36.199Z,19.30
2017-07-20T05:52:02.361Z,19.30
2017-07-20T05:54:28.451Z,19.40
2017-07-20T05:56:54.485Z,19.30
2017-07-20T05:59:20.513Z,19.30
2017-07-20T06:01:46.585Z,19.30
2017-07-20T06:04:12.608Z,19.40
2017-07-20T06:06:38.625Z,19.40
2017-07-20T06:09:04.661Z,19.50
2017-07-20T06:11:30.681Z,19.60
2017-07-20T06:13:56.710Z,19.70
2017-07-20T06:16:22.722Z,19.90
2017-07-20T06:18:48.757Z,20.00
2017-07-20T06:21:14.793Z,20.00
2017-07-20T06:23:40.852Z,20.10
2017-07-20T06:26:07.627Z,20.30
2017-07-20T06:28:33.653Z,20.30
2017-07-20T06:31:00.533Z,20.30
2017-07-20T06:33:26.826Z,20.20
2017-07-20T06:35:53.666Z,20.20
2017-07-20T06:38:19.690Z,20.20
2017-07-20T06:40:45.717Z,20.40
2017-07-20T06:43:11.740Z,20.30
2017-07-20T06:45:37.789Z,20.20
2017-07-20T06:48:04.565Z,20.50
2017-07-20T06:50:30.589Z,20.50
2017-07-20T06:52:56.784Z,20.50
2017-07-20T06:55:22.821Z,20.60
2017-07-20T06:57:48.961Z,20.80
2017-07-20T07:00:15.007Z,20.90
2017-07-20T07:02:41.037Z,20.90
2017-07-20T07:05:07.257Z,20.90
2017-07-20T07:07:33.430Z,21.00
2017-07-20T07:09:59.448Z,21.00
2017-07-20T07:12:25.465Z,20.90
2017-07-20T07:14:51.513Z,20.80
2017-07-20T07:17:17.527Z,20.80
2017-07-20T07:19:43.580Z,20.90
2017-07-20T07:22:09.605Z,21.00
2017-07-20T07:24:35.625Z,21.10
2017-07-20T07:27:01.661Z,21.20
2017-07-20T07:29:27.788Z,21.30
2017-07-20T07:31:53.804Z,21.30
2017-07-20T07:34:19.828Z,21.40
2017-07-20T07:36:45.886Z,21.40
2017-07-20T07:39:11.940Z,21.50
2017-07-20T07:41:38.070Z,21.40
2017-07-20T07:44:04.093Z,21.40
2017-07-20T07:46:30.133Z,21.40
2017-07-20T07:48:56.900Z,21.50
2017-07-20T07:51:22.936Z,21.50
2017-07-20T07:53:48.947Z,21.70
2017-07-20T07:56:14.980Z,21.70
2017-07-20T07:58:41.740Z,21.80
2017-07-20T08:01:07.773Z,21.70
2017-07-20T08:03:33.785Z,21.80
2017-07-20T08:05:59.806Z,21.90
2017-07-20T08:08:25.834Z,21.90
2017-07-20T08:10:51.845Z,21.80
2017-07-20T08:13:18.605Z,22.00
2017-07-20T08:15:44.617Z,22.00
2017-07-20T08:18:10.637Z,22.00
2017-07-20T08:20:36.672Z,21.70
2017-07-20T08:23:02.713Z,21.30
2017-07-20T08:25:29.477Z,21.00
2017-07-20T08:27:55.492Z,21.00
2017-07-20T08:30:21.596Z,20.80
2017-07-20T08:32:47.631Z,20.70
2017-07-20T08:35:13.652Z,20.80
2017-07-20T08:37:39.688Z,20.80
2017-07-20T08:40:06.457Z,20.80
2017-07-20T08:42:32.480Z,20.70
2017-07-20T08:44:58.500Z,20.70
2017-07-20T08:47:24.499Z,20.70
2017-07-20T08:49:50.528Z,20.70
2017-07-20T08:52:17.293Z,20.80
2017-07-20T08:54:43.333Z,20.80
2017-07-20T08:57:09.351Z,20.80
2017-07-20T08:59:35.369Z,20.80
2017-07-20T09:02:01.388Z,20.70
2017-07-20T09:04:27.440Z,20.80
2017-07-20T09:06:53.469Z,20.80
2017-07-20T09:09:19.484Z,20.80
2017-07-20T09:11:45.506Z,20.70
2017-07-20T09:14:11.516Z,20.80
2017-07-20T09:16:37.540Z,20.80
2017-07-20T09:19:03.569Z,20.90
2017-07-20T09:21:29.593Z,21.00
2017-07-20T09:23:55.613Z,21.20
2017-07-20T09:26:21.652Z,21.20
2017-07-20T09:28:47.678Z,21.20
2017-07-20T09:31:14.460Z,21.30
2017-07-20T09:33:40.500Z,21.30
2017-07-20T09:36:06.522Z,21.40
2017-07-20T09:38:32.560Z,21.40
2017-07-20T09:40:58.571Z,21.40
2017-07-20T09:43:24.597Z,21.40
2017-07-20T09:45:50.625Z,21.40
2017-07-20T09:48:16.669Z,21.50
2017-07-20T09:50:43.421Z,21.60
2017-07-20T09:53:09.468Z,21.60
2017-07-20T09:55:35.481Z,21.70
2017-07-20T09:58:01.536Z,21.70
2017-07-20T10:00:28.308Z,21.50
2017-07-20T10:02:54.335Z,21.50
2017-07-20T10:05:20.381Z,21.50
2017-07-20T10:07:46.408Z,21.40
2017-07-20T10:10:12.433Z,21.30
2017-07-20T10:12:38.468Z,21.30
2017-07-20T10:15:04.493Z,21.40
2017-07-20T10:17:30.508Z,21.30
2017-07-20T10:19:57.304Z,21.20
2017-07-20T10:22:23.324Z,21.20
2017-07-20T10:24:49.353Z,21.30
2017-07-20T10:27:16.112Z,21.50
2017-07-20T10:29:42.128Z,21.50
2017-07-20T10:32:08.181Z,21.60
2017-07-20T10:34:34.952Z,21.70
2017-07-20T10:37:00.972Z,21.60
2017-07-20T10:39:26.984Z,21.70
2017-07-20T10:41:53.032Z,21.80
2017-07-20T10:44:19.800Z,22.20
2017-07-20T10:46:45.812Z,22.10
2017-07-20T10:49:11.861Z,22.50
2017-07-20T10:51:37.876Z,22.70
2017-07-20T10:54:03.897Z,22.80
2017-07-20T10:56:29.913Z,22.90
2017-07-20T10:58:56.678Z,22.90
2017-07-20T11:01:22.688Z,22.90
2017-07-20T11:03:48.709Z,22.90
2017-07-20T11:06:29.697Z,23.00
2017-07-20T11:08:55.717Z,23.10
2017-07-20T11:11:21.739Z,23.10
2017-07-20T11:13:47.768Z,23.30
2017-07-20T11:16:13.781Z,23.50
2017-07-20T11:18:39.788Z,23.90
2017-07-20T11:21:05.841Z,24.00
2017-07-20T11:23:31.893Z,24.00
2017-07-20T11:25:57.951Z,24.20
2017-07-20T11:28:23.969Z,24.50
2017-07-20T11:30:50.002Z,24.70
2017-07-20T11:33:16.780Z,25.30
2017-07-20T11:35:42.816Z,25.20
2017-07-20T11:38:08.832Z,25.20
2017-07-20T11:40:34.876Z,25.30
2017-07-20T11:43:00.916Z,25.30
2017-07-20T11:45:26.944Z,25.20
2017-07-20T11:47:52.981Z,25.10
2017-07-20T11:50:19.012Z,25.00
2017-07-20T11:52:45.040Z,25.00
2017-07-20T11:55:11.068Z,24.80
2017-07-20T11:57:37.096Z,24.50
2017-07-20T12:00:03.133Z,24.20
2017-07-20T12:02:29.162Z,24.10
2017-07-20T12:04:55.208Z,24.30
2017-07-20T12:07:21.245Z,24.30
2017-07-20T12:09:48.008Z,24.90
2017-07-20T12:12:14.029Z,24.90
2017-07-20T12:14:40.049Z,25.20
2017-07-20T12:17:06.064Z,25.30
2017-07-20T12:19:32.084Z,25.60
2017-07-20T12:21:58.105Z,26.00
2017-07-20T12:24:24.126Z,26.30
2017-07-20T12:26:50.884Z,26.10
2017-07-20T12:29:23.782Z,26.10
2017-07-20T12:31:49.797Z,26.00
2017-07-20T12:34:15.813Z,25.70
2017-07-20T12:36:41.833Z,25.40
2017-07-20T12:39:07.872Z,25.20
2017-07-20T12:41:33.893Z,25.00
2017-07-20T12:43:59.909Z,25.00
2017-07-20T12:46:25.921Z,24.90
2017-07-20T12:48:51.945Z,24.90
2017-07-20T12:51:17.980Z,24.60
2017-07-20T12:53:44.048Z,24.40
2017-07-20T12:56:10.077Z,24.40
2017-07-20T12:58:36.254Z,24.30
2017-07-20T13:01:02.296Z,24.40
2017-07-20T13:03:28.335Z,24.50
2017-07-20T13:05:54.357Z,24.60
2017-07-20T13:08:20.380Z,24.60
2017-07-20T13:10:46.408Z,24.50
2017-07-20T13:13:12.421Z,24.50
2017-07-20T13:15:38.456Z,24.40
2017-07-20T13:18:04.504Z,24.30
2017-07-20T13:20:30.549Z,24.10
2017-07-20T13:22:56.581Z,24.10
2017-07-20T13:25:22.601Z,24.10
2017-07-20T13:27:48.625Z,24.10
2017-07-20T13:30:15.384Z,24.00
2017-07-20T13:32:41.444Z,23.90
2017-07-20T13:35:08.212Z,24.20
2017-07-20T13:37:34.228Z,24.10
2017-07-20T13:40:00.250Z,24.30
2017-07-20T13:42:26.277Z,24.40
2017-07-20T13:44:52.312Z,24.50
2017-07-20T13:47:19.104Z,25.10
2017-07-20T13:49:45.129Z,25.10
2017-07-20T13:52:11.146Z,25.40
2017-07-20T13:54:37.189Z,25.60
2017-07-20T13:57:03.213Z,25.60
2017-07-20T13:59:29.241Z,25.70
2017-07-20T14:01:55.283Z,26.00
2017-07-20T14:04:22.052Z,25.90
2017-07-20T14:06:48.072Z,25.90
2017-07-20T14:09:14.115Z,25.70
2017-07-20T14:11:40.164Z,25.60
2017-07-20T14:14:13.154Z,25.50
2017-07-20T14:16:39.189Z,25.20
2017-07-20T14:19:05.204Z,24.90
2017-07-20T14:21:31.232Z,24.70
2017-07-20T14:23:57.249Z,24.50
2017-07-20T14:26:23.268Z,24.50
2017-07-20T14:28:49.305Z,24.60
2017-07-20T14:31:15.320Z,24.70
2017-07-20T14:33:41.345Z,24.90
2017-07-20T14:36:07.369Z,24.90
2017-07-20T14:38:33.384Z,24.90
2017-07-20T14:40:59.417Z,24.80
2017-07-20T14:43:25.428Z,24.90
2017-07-20T14:45:51.441Z,25.40
2017-07-20T14:48:17.457Z,25.70
2017-07-20T14:50:43.481Z,26.00
2017-07-20T14:53:09.493Z,26.00
2017-07-20T14:55:35.521Z,25.90
2017-07-20T14:58:01.561Z,25.70
2017-07-20T15:00:28.320Z,24.70
2017-07-20T15:02:54.345Z,24.70
2017-07-20T15:05:20.376Z,24.50
2017-07-20T15:07:46.436Z,24.30
2017-07-20T15:10:12.480Z,24.30
2017-07-20T15:12:38.528Z,24.10
2017-07-20T15:15:05.303Z,24.10
2017-07-20T15:17:31.329Z,24.10
2017-07-20T15:19:57.376Z,24.30
2017-07-20T15:22:23.384Z,24.30
2017-07-20T15:24:56.216Z,24.40
2017-07-20T15:27:22.233Z,24.50
2017-07-20T15:29:48.256Z,24.60
2017-07-20T15:32:14.313Z,25.10
2017-07-20T15:34:40.341Z,25.90
2017-07-20T15:37:06.368Z,26.40
2017-07-20T15:39:32.401Z,27.00
2017-07-20T15:41:59.163Z,28.70
2017-07-20T15:44:25.188Z,28.70
2017-07-20T15:46:51.220Z,29.20
2017-07-20T15:49:17.244Z,29.10
2017-07-20T15:51:43.269Z,29.30
2017-07-20T15:54:10.029Z,29.90
2017-07-20T15:56:36.052Z,29.80
2017-07-20T15:59:02.076Z,29.80
2017-07-20T16:01:28.122Z,29.30
2017-07-20T16:03:54.932Z,28.00
2017-07-20T16:06:20.960Z,28.00
2017-07-20T16:08:46.981Z,27.60
2017-07-20T16:11:13.017Z,27.40
2017-07-20T16:13:39.068Z,26.90
2017-07-20T16:16:05.079Z,26.50
2017-07-20T16:18:31.881Z,25.90
2017-07-20T16:20:57.897Z,25.90
2017-07-20T16:23:23.918Z,25.70
2017-07-20T16:25:49.952Z,25.60
2017-07-20T16:28:15.976Z,25.70
2017-07-20T16:30:42.001Z,25.70
2017-07-20T16:33:08.049Z,25.70
2017-07-20T16:35:34.084Z,26.00
2017-07-20T16:38:00.860Z,27.50
2017-07-20T16:40:26.892Z,27.50
2017-07-20T16:42:52.917Z,28.20
2017-07-20T16:45:19.681Z,29.50
2017-07-20T16:47:45.708Z,29.40
2017-07-20T16:50:11.737Z,29.00
2017-07-20T16:52:37.777Z,28.70
2017-07-20T16:55:03.801Z,28.20
2017-07-20T16:57:29.832Z,27.80
2017-07-20T16:59:55.876Z,27.40
2017-07-20T17:02:21.896Z,27.20
2017-07-20T17:04:48.652Z,26.50
2017-07-20T17:07:14.704Z,26.50
2017-07-20T17:09:40.733Z,26.30
2017-07-20T17:12:06.745Z,26.00
2017-07-20T17:14:33.528Z,25.70
2017-07-20T17:16:59.550Z,25.70
2017-07-20T17:19:25.577Z,25.60
2017-07-20T17:21:51.599Z,25.40
2017-07-20T17:24:18.395Z,25.20
2017-07-20T17:26:44.435Z,25.20
2017-07-20T17:29:10.473Z,25.00
2017-07-20T17:31:36.507Z,24.80
2017-07-20T17:34:02.530Z,24.70
2017-07-20T17:36:28.574Z,24.70
2017-07-20T17:38:54.593Z,24.50
2017-07-20T17:41:20.612Z,24.60
2017-07-20T17:43:46.623Z,24.60
2017-07-20T17:46:12.637Z,24.50
2017-07-20T17:48:38.676Z,24.50
2017-07-20T17:51:04.700Z,24.50
2017-07-20T17:53:30.725Z,24.50
2017-07-20T17:55:57.484Z,24.30
2017-07-20T17:58:23.520Z,24.30
2017-07-20T18:00:49.553Z,24.10
2017-07-20T18:03:15.618Z,24.10
2017-07-20T18:05:41.669Z,24.00
2017-07-20T18:08:07.705Z,24.00
2017-07-20T18:10:33.725Z,24.10
2017-07-20T18:12:59.748Z,24.10
2017-07-20T18:15:25.773Z,24.20
2017-07-20T18:17:51.817Z,24.20
2017-07-20T18:20:17.846Z,24.20
2017-07-20T18:22:43.892Z,24.30
2017-07-20T18:25:09.946Z,24.30
2017-07-20T18:27:35.988Z,24.30
2017-07-20T18:30:02.017Z,24.40
2017-07-20T18:32:28.048Z,24.50
2017-07-20T18:34:54.073Z,24.60
2017-07-20T18:37:20.124Z,24.50
2017-07-20T18:39:46.160Z,24.40
2017-07-20T18:42:12.218Z,24.50
2017-07-20T18:44:38.276Z,24.40
2017-07-20T18:47:04.313Z,24.30
2017-07-20T18:49:30.344Z,24.30
2017-07-20T18:51:56.389Z,24.10
2017-07-20T18:54:22.421Z,24.00
2017-07-20T18:56:48.473Z,24.00
2017-07-20T18:59:15.229Z,24.00
2017-07-20T19:01:42.024Z,24.00
2017-07-20T19:04:08.791Z,24.00
2017-07-20T19:06:34.813Z,24.00
2017-07-20T19:09:00.850Z,24.00
2017-07-20T19:11:26.868Z,23.90
2017-07-20T19:13:53.649Z,23.90
2017-07-20T19:16:19.677Z,23.90
2017-07-20T19:18:45.716Z,23.90
2017-07-20T19:21:12.521Z,23.80
2017-07-20T19:23:38.572Z,23.70
2017-07-20T19:26:04.653Z,23.70
2017-07-20T19:28:30.668Z,23.60
2017-07-20T19:30:58.360Z,23.60
2017-07-20T19:33:24.389Z,23.60
2017-07-20T19:35:50.417Z,23.60
2017-07-20T19:38:16.464Z,23.60
2017-07-20T19:40:42.489Z,23.50
2017-07-20T19:43:08.521Z,23.50
2017-07-20T19:45:34.550Z,23.40
2017-07-20T19:48:00.609Z,23.30
2017-07-20T19:50:26.664Z,23.30
2017-07-20T19:52:52.713Z,23.30
2017-07-20T19:55:18.750Z,23.30
2017-07-20T19:57:44.784Z,23.30
2017-07-20T20:00:10.825Z,23.30
2017-07-20T20:02:36.912Z,23.30
2017-07-20T20:05:02.940Z,23.30
2017-07-20T20:07:28.996Z,23.20
2017-07-20T20:09:55.021Z,23.10
2017-07-20T20:12:21.037Z,22.90
2017-07-20T20:14:47.054Z,22.70
2017-07-20T20:17:13.084Z,22.10
2017-07-20T20:19:39.157Z,21.40
2017-07-20T20:22:05.173Z,20.90
2017-07-20T20:24:31.205Z,20.60
2017-07-20T20:26:57.216Z,20.40
2017-07-20T20:29:23.984Z,20.30
2017-07-20T20:31:49.992Z,20.30
2017-07-20T20:34:16.008Z,20.20
2017-07-20T20:36:42.036Z,19.90
2017-07-20T20:39:08.080Z,19.70
2017-07-20T20:41:34.828Z,19.60
2017-07-20T20:44:15.805Z,19.60
2017-07-20T20:46:41.844Z,19.60
2017-07-20T20:49:07.891Z,19.50
2017-07-20T20:51:33.904Z,19.40
2017-07-20T20:53:59.929Z,19.30
2017-07-20T20:56:25.981Z,19.30
2017-07-20T20:58:52.001Z,19.30
2017-07-20T21:01:18.039Z,19.20
2017-07-20T21:03:44.085Z,19.20
2017-07-20T21:06:10.125Z,19.10
2017-07-20T21:08:36.160Z,19.20
2017-07-20T21:11:02.198Z,19.10
2017-07-20T21:13:28.212Z,19.10
2017-07-20T21:15:54.249Z,19.20
2017-07-20T21:18:20.264Z,19.10
2017-07-20T21:20:46.289Z,19.20
2017-07-20T21:23:13.044Z,19.20
2017-07-20T21:25:39.092Z,19.10
2017-07-20T21:28:05.128Z,19.10
2017-07-20T21:30:31.908Z,19.10
2017-07-20T21:32:57.960Z,19.10
2017-07-20T21:35:24.737Z,19.10
2017-07-20T21:37:50.756Z,19.10
2017-07-20T21:40:16.808Z,19.10
2017-07-20T21:42:42.854Z,19.10
2017-07-20T21:45:08.873Z,19.20
2017-07-20T21:47:34.913Z,19.20
2017-07-20T21:50:00.937Z,19.20
2017-07-20T21:52:27.701Z,19.20
2017-07-20T21:54:53.714Z,19.10
2017-07-20T21:57:19.760Z,19.10
2017-07-20T21:59:45.788Z,19.20
2017-07-20T22:02:11.816Z,19.20
2017-07-20T22:04:37.847Z,19.20
2017-07-20T22:07:03.892Z,19.20
2017-07-20T22:09:29.940Z,19.20
2017-07-20T22:11:55.961Z,19.30
2017-07-20T22:14:22.097Z,19.30
2017-07-20T22:16:48.121Z,19.20
2017-07-20T22:19:14.192Z,19.20
2017-07-20T22:21:40.229Z,19.20
2017-07-20T22:24:06.256Z,19.20
2017-07-20T22:26:32.289Z,19.10
2017-07-20T22:28:59.073Z,19.20
2017-07-20T22:31:25.117Z,19.20
2017-07-20T22:33:51.147Z,19.10
2017-07-20T22:36:17.181Z,19.10
2017-07-20T22:38:43.224Z,19.10
2017-07-20T22:41:09.269Z,19.10
2017-07-20T22:43:36.037Z,19.00
2017-07-20T22:46:02.107Z,19.00
2017-07-20T22:48:29.125Z,18.90
2017-07-20T22:50:55.936Z,18.90
2017-07-20T22:53:22.009Z,18.90
2017-07-20T22:55:48.090Z,18.90
2017-07-20T22:58:14.128Z,18.80
2017-07-20T23:00:40.161Z,18.80
2017-07-20T23:03:21.154Z,18.70
2017-07-20T23:05:47.197Z,18.70
2017-07-20T23:08:13.250Z,18.60
2017-07-20T23:10:40.064Z,18.60
2017-07-20T23:13:06.085Z,18.60
2017-07-20T23:15:32.129Z,18.60
2017-07-20T23:17:58.158Z,18.60
2017-07-20T23:20:24.186Z,18.50
2017-07-20T23:22:50.212Z,18.50
2017-07-20T23:25:16.237Z,18.40
2017-07-20T23:27:42.257Z,18.40
2017-07-20T23:30:08.289Z,18.40
2017-07-20T23:32:34.317Z,18.30
2017-07-20T23:35:00.340Z,18.40
2017-07-20T23:37:26.364Z,18.30
2017-07-20T23:39:52.384Z,18.30
2017-07-20T23:42:19.224Z,18.20
2017-07-20T23:44:45.245Z,18.20
2017-07-20T23:47:11.257Z,18.20
2017-07-20T23:49:37.280Z,18.10
2017-07-20T23:52:03.292Z,18.10
2017-07-20T23:54:29.317Z,18.00
2017-07-20T23:56:55.333Z,18.10
2017-07-20T23:59:21.382Z,18.10
